Terminal Aerodrome Forecast
Issued by NWS

Home | Current Version | Previous Version | Text Only | Print | Product List | Glossary On
Versions: 1 2 3 4 5 6 7 8 9 10 11 12 13 14 15 16 17 18 19 20 21 22 23 24 25 26 27 28 29 30 31 32 33 34
631
FTUS43 KDMX 241335 AAA
TAFFOD
TAF AMD
KFOD 241335Z 2414/2512 01005KT 5SM RA OVC015
     FM241500 03010KT P6SM OVC015
     FM241900 02011G17KT P6SM VCTS OVC015CB
     FM242100 03012KT 5SM -SHRA OVC007
     FM250500 04013G19KT 3SM -SHRA OVC003=

USA.gov is the U.S. government's official web portal to all federal, state and local government web resources and services.